Time;durP1;ratioP1;P1;durP2;ratioP2;P2;SDS_P1;SDS_P2;PMS_P1;PMS_P2;Temp;Humidity;BMP_temperature;BMP_pressure;BME280_temperature;BME280_humidity;BME280_pressure;Samples;Min_cycle;Max_cycle;Signal;HPM_P1;HPM_P2
2020/12/29 00:04:43;;;;;;;;;;;4.30;99.90;;;;;;10486639;28;20746;-70
2020/12/29 00:09:44;;;;;;;;;;;4.50;99.90;;;;;;10485960;28;19920;-69
2020/12/29 00:14:46;;;;;;;;;;;4.60;99.90;;;;;;10484841;28;19921;-69
2020/12/29 00:19:47;;;;;;;;;;;4.70;99.90;;;;;;10484314;28;19920;-70
2020/12/29 00:24:48;;;;;;;;;;;4.90;99.90;;;;;;10484912;28;20015;-69
2020/12/29 00:29:50;;;;;;;;;;;4.80;99.90;;;;;;10488381;28;19968;-70
2020/12/29 00:34:51;;;;;;;;;;;4.80;99.90;;;;;;10492710;28;20425;-69
2020/12/29 00:39:53;;;;;;;;;;;4.90;99.90;;;;;;10492539;28;19966;-69
2020/12/29 00:44:54;;;;;;;;;;;5.00;99.90;;;;;;10469401;28;19929;-70
2020/12/29 00:49:55;;;;;;;;;;;4.90;99.90;;;;;;10474036;28;20388;-70
2020/12/29 00:54:57;;;;;;;;;;;4.90;99.90;;;;;;10465334;28;19995;-70
2020/12/29 00:59:58;;;;;;;;;;;4.80;99.90;;;;;;10466340;28;19963;-70
2020/12/29 01:04:59;;;;;;;;;;;4.80;99.90;;;;;;10478636;28;19924;-70
2020/12/29 01:10:00;;;;;;;;;;;4.90;99.90;;;;;;10490932;28;19924;-70
2020/12/29 01:15:02;;;;;;;;;;;5.00;99.90;;;;;;10489450;28;20035;-70
2020/12/29 01:20:04;;;;;;;;;;;5.00;99.90;;;;;;10487913;28;19920;-70
2020/12/29 01:25:05;;;;;;;;;;;4.90;99.90;;;;;;10486442;28;19924;-70
2020/12/29 01:30:06;;;;;;;;;;;5.10;99.90;;;;;;10479557;28;19967;-70
2020/12/29 01:35:08;;;;;;;;;;;5.10;99.90;;;;;;10488881;28;19974;-70
2020/12/29 01:40:10;;;;;;;;;;;5.10;99.70;;;;;;10487519;28;19936;-70
2020/12/29 01:45:13;;;;;;;;;;;5.00;99.90;;;;;;10489758;28;19920;-70
2020/12/29 01:50:16;;;;;;;;;;;4.90;99.60;;;;;;10489165;28;19927;-69
2020/12/29 01:55:17;;;;;;;;;;;4.80;99.90;;;;;;10457014;28;20455;-69
2020/12/29 02:00:18;;;;;;;;;;;4.70;99.90;;;;;;10484751;28;19967;-69
2020/12/29 02:05:20;;;;;;;;;;;4.80;99.90;;;;;;10488528;28;20324;-71
2020/12/29 02:10:22;;;;;;;;;;;4.80;99.90;;;;;;10490318;28;19924;-70
2020/12/29 02:15:23;;;;;;;;;;;4.70;99.90;;;;;;10489520;28;19971;-69
2020/12/29 02:20:25;;;;;;;;;;;4.70;99.90;;;;;;10489677;28;19957;-69
2020/12/29 02:25:26;;;;;;;;;;;4.80;99.90;;;;;;10488938;28;19956;-69
2020/12/29 02:30:27;;;;;;;;;;;4.90;99.90;;;;;;10487787;28;19920;-70
2020/12/29 02:35:29;;;;;;;;;;;4.90;99.90;;;;;;10488719;28;20280;-69
2020/12/29 02:40:30;;;;;;;;;;;4.80;99.50;;;;;;10488095;28;20388;-70
2020/12/29 02:45:31;;;;;;;;;;;4.80;99.60;;;;;;10488467;28;19960;-70
2020/12/29 02:50:33;;;;;;;;;;;4.80;99.70;;;;;;10487205;28;20014;-69
2020/12/29 02:55:34;;;;;;;;;;;4.90;99.60;;;;;;10485598;28;19974;-69
2020/12/29 03:00:36;;;;;;;;;;;4.90;99.60;;;;;;10488056;28;19928;-70
2020/12/29 03:05:37;;;;;;;;;;;4.80;99.70;;;;;;10495568;28;20404;-69
2020/12/29 03:10:38;;;;;;;;;;;4.90;99.90;;;;;;10495441;28;19920;-70
2020/12/29 03:15:39;;;;;;;;;;;5.00;99.90;;;;;;10495128;28;19956;-69
2020/12/29 03:20:41;;;;;;;;;;;5.10;99.90;;;;;;10495593;28;19924;-69
2020/12/29 03:25:42;;;;;;;;;;;5.20;99.50;;;;;;10495510;28;19927;-69
2020/12/29 03:30:43;;;;;;;;;;;5.00;99.90;;;;;;10494271;28;20031;-69
2020/12/29 03:35:45;;;;;;;;;;;4.80;99.90;;;;;;10495632;28;19960;-69
2020/12/29 03:40:47;;;;;;;;;;;4.80;99.90;;;;;;10494393;28;20006;-69
2020/12/29 03:45:49;;;;;;;;;;;4.90;99.90;;;;;;10495405;28;19958;-69
2020/12/29 03:50:50;;;;;;;;;;;5.00;99.90;;;;;;10494151;28;19920;-69
2020/12/29 03:55:51;;;;;;;;;;;5.10;99.90;;;;;;10494186;28;19956;-69
2020/12/29 04:00:52;;;;;;;;;;;5.10;99.90;;;;;;10493799;28;20456;-69
2020/12/29 04:05:54;;;;;;;;;;;5.10;99.90;;;;;;10492256;28;19920;-68
2020/12/29 04:10:55;;;;;;;;;;;5.00;99.90;;;;;;10496425;28;19927;-69
2020/12/29 04:15:57;;;;;;;;;;;5.10;99.90;;;;;;10494496;28;20015;-68
2020/12/29 04:20:59;;;;;;;;;;;5.00;99.90;;;;;;10494622;28;19924;-68
2020/12/29 04:26:00;;;;;;;;;;;5.00;99.90;;;;;;10494848;28;20260;-68
2020/12/29 04:31:02;;;;;;;;;;;5.10;99.90;;;;;;10494968;28;20003;-68
2020/12/29 04:36:03;;;;;;;;;;;5.20;99.90;;;;;;10494448;28;19927;-68
2020/12/29 04:41:05;;;;;;;;;;;5.20;99.90;;;;;;10495103;28;19920;-68
2020/12/29 04:46:07;;;;;;;;;;;5.30;99.90;;;;;;10494198;28;19979;-68
2020/12/29 04:51:08;;;;;;;;;;;5.40;99.80;;;;;;10493634;28;20283;-68
2020/12/29 04:56:10;;;;;;;;;;;5.40;99.90;;;;;;10493144;28;20116;-68
2020/12/29 05:01:12;;;;;;;;;;;5.30;99.90;;;;;;10493753;28;19931;-68
2020/12/29 05:06:14;;;;;;;;;;;5.30;99.90;;;;;;10493051;28;19974;-68
2020/12/29 05:11:16;;;;;;;;;;;5.30;99.90;;;;;;10492898;28;19974;-68
2020/12/29 05:16:18;;;;;;;;;;;5.30;99.90;;;;;;10492607;28;20432;-68
2020/12/29 05:21:19;;;;;;;;;;;5.20;99.90;;;;;;10492223;28;19959;-69
2020/12/29 05:26:24;;;;;;;;;;;5.20;99.90;;;;;;10492707;28;19929;-68
2020/12/29 05:31:26;;;;;;;;;;;5.20;99.90;;;;;;10492483;28;19924;-68
2020/12/29 05:36:28;;;;;;;;;;;5.20;99.90;;;;;;10490841;28;20399;-68
2020/12/29 05:41:35;;;;;;;;;;;5.30;99.90;;;;;;10492393;28;19920;-68
2020/12/29 05:46:36;;;;;;;;;;;5.30;99.90;;;;;;10491094;28;20352;-68
2020/12/29 05:51:39;;;;;;;;;;;5.30;99.90;;;;;;10492097;28;19985;-68
2020/12/29 05:56:41;;;;;;;;;;;5.30;99.90;;;;;;10491793;28;19970;-68
2020/12/29 06:01:43;;;;;;;;;;;5.20;99.90;;;;;;10490206;28;19989;-69
2020/12/29 06:06:45;;;;;;;;;;;5.10;99.90;;;;;;10490148;28;19966;-69
2020/12/29 06:11:46;;;;;;;;;;;5.10;99.90;;;;;;10490765;28;19924;-69
2020/12/29 06:16:48;;;;;;;;;;;5.00;99.90;;;;;;10490091;28;19974;-69
2020/12/29 06:21:51;;;;;;;;;;;5.00;99.90;;;;;;10490513;28;19928;-69
2020/12/29 06:26:53;;;;;;;;;;;5.00;99.90;;;;;;10489050;28;20392;-69
2020/12/29 06:31:55;;;;;;;;;;;4.90;99.90;;;;;;10490024;28;20374;-69
2020/12/29 06:37:02;;;;;;;;;;;4.90;99.90;;;;;;10490120;28;19920;-69
2020/12/29 06:42:04;;;;;;;;;;;4.80;99.90;;;;;;10489476;28;19920;-69
2020/12/29 06:47:09;;;;;;;;;;;4.70;99.90;;;;;;10489106;28;19920;-69
2020/12/29 06:52:15;;;;;;;;;;;4.70;99.90;;;;;;10489346;28;20411;-69
2020/12/29 06:57:16;;;;;;;;;;;4.70;99.90;;;;;;10488766;28;19999;-69
2020/12/29 07:02:19;;;;;;;;;;;4.70;99.90;;;;;;10488922;28;19928;-69
2020/12/29 07:07:28;;;;;;;;;;;4.50;99.90;;;;;;10463862;28;19929;-70
2020/12/29 07:12:29;;;;;;;;;;;4.50;99.90;;;;;;10483817;28;19952;-69
2020/12/29 07:17:31;;;;;;;;;;;4.50;99.90;;;;;;10474767;28;19928;-69
2020/12/29 07:22:33;;;;;;;;;;;4.50;99.90;;;;;;10486608;28;20102;-69
2020/12/29 07:27:39;;;;;;;;;;;4.50;99.90;;;;;;10485798;28;20266;-69
2020/12/29 07:32:40;;;;;;;;;;;4.50;99.90;;;;;;10458963;28;20357;-68
2020/12/29 07:37:43;;;;;;;;;;;4.50;99.90;;;;;;10484161;28;20353;-69
2020/12/29 07:42:45;;;;;;;;;;;4.40;99.90;;;;;;10484909;28;20018;-69
2020/12/29 07:47:46;;;;;;;;;;;4.50;99.90;;;;;;10484514;28;19961;-69
2020/12/29 07:52:47;;;;;;;;;;;4.50;99.90;;;;;;10486596;28;19925;-68
2020/12/29 07:57:49;;;;;;;;;;;4.50;99.90;;;;;;10486578;28;19974;-68
2020/12/29 08:02:51;;;;;;;;;;;4.50;99.90;;;;;;10487746;28;19966;-69
2020/12/29 08:07:56;;;;;;;;;;;4.60;99.90;;;;;;10487428;28;19967;-69
2020/12/29 08:13:01;;;;;;;;;;;4.70;99.90;;;;;;10486074;28;19932;-69
2020/12/29 08:18:05;;;;;;;;;;;4.70;99.90;;;;;;10486944;28;19927;-69
2020/12/29 08:23:07;;;;;;;;;;;4.70;99.90;;;;;;10486017;28;19921;-69
2020/12/29 08:28:08;;;;;;;;;;;4.80;99.90;;;;;;10486649;28;20412;-69
2020/12/29 08:33:12;;;;;;;;;;;4.80;99.90;;;;;;10486836;28;19920;-69
2020/12/29 08:38:32;;;;;;;;;;;4.90;99.90;;;;;;10487102;28;19963;-69
2020/12/29 08:43:35;;;;;;;;;;;5.20;99.90;;;;;;10486709;28;20411;-70
2020/12/29 08:48:37;;;;;;;;;;;5.20;99.90;;;;;;10486203;28;19920;-69
2020/12/29 08:53:38;;;;;;;;;;;5.20;99.90;;;;;;10492862;28;19921;-69
2020/12/29 08:58:40;;;;;;;;;;;5.20;99.90;;;;;;10493179;28;19921;-68
2020/12/29 09:03:41;;;;;;;;;;;5.30;99.90;;;;;;10492656;28;20365;-68
2020/12/29 09:09:06;;;;;;;;;;;5.40;99.90;;;;;;10492864;28;19927;-69
2020/12/29 09:14:07;;;;;;;;;;;5.40;99.90;;;;;;10493493;28;20322;-68
2020/12/29 09:19:14;;;;;;;;;;;5.40;99.90;;;;;;10493541;28;19920;-69
2020/12/29 09:24:19;;;;;;;;;;;5.60;99.90;;;;;;10492871;28;19924;-68
2020/12/29 09:29:20;;;;;;;;;;;5.60;99.90;;;;;;10492625;28;20419;-69
2020/12/29 09:34:22;;;;;;;;;;;5.60;99.90;;;;;;10465180;28;19924;-70
2020/12/29 09:39:23;;;;;;;;;;;5.70;99.90;;;;;;10460828;28;19971;-70
2020/12/29 09:44:24;;;;;;;;;;;5.80;99.90;;;;;;10486020;28;19931;-70
2020/12/29 09:49:26;;;;;;;;;;;5.80;99.90;;;;;;10460331;28;20395;-72
2020/12/29 09:54:27;;;;;;;;;;;5.90;99.90;;;;;;10488364;28;20364;-70
2020/12/29 09:59:28;;;;;;;;;;;5.90;99.90;;;;;;10462170;28;19975;-69
2020/12/29 10:04:30;;;;;;;;;;;6.00;99.90;;;;;;10449177;28;19977;-70
2020/12/29 10:09:31;;;;;;;;;;;6.10;99.10;;;;;;10485697;28;19924;-70
2020/12/29 10:14:32;;;;;;;;;;;6.20;99.20;;;;;;10487889;28;19924;-70
2020/12/29 10:19:34;;;;;;;;;;;6.10;99.10;;;;;;10487729;28;19920;-70
2020/12/29 10:24:35;;;;;;;;;;;6.00;99.30;;;;;;10489501;28;19935;-70
2020/12/29 10:29:36;;;;;;;;;;;6.00;98.50;;;;;;10487743;28;20395;-70
2020/12/29 10:34:38;;;;;;;;;;;6.00;98.60;;;;;;10457821;28;19943;-70
2020/12/29 10:39:39;;;;;;;;;;;6.10;98.60;;;;;;10448403;28;20013;-70
2020/12/29 10:44:43;;;;;;;;;;;6.40;97.60;;;;;;10482035;28;19959;-70
2020/12/29 10:49:44;;;;;;;;;;;6.40;97.90;;;;;;10486624;28;19920;-70
2020/12/29 10:54:46;;;;;;;;;;;6.50;97.50;;;;;;10486899;28;19971;-70
2020/12/29 10:59:48;;;;;;;;;;;6.50;97.10;;;;;;10486403;28;20203;-70
2020/12/29 11:04:49;;;;;;;;;;;6.30;97.60;;;;;;10486094;28;19952;-70
2020/12/29 11:09:50;;;;;;;;;;;6.10;96.90;;;;;;10487395;28;19970;-70
2020/12/29 11:14:51;;;;;;;;;;;6.00;97.70;;;;;;10462093;28;20029;-69
2020/12/29 11:19:53;;;;;;;;;;;6.00;98.20;;;;;;10461470;28;20484;-70
2020/12/29 11:24:54;;;;;;;;;;;6.00;98.30;;;;;;10469590;28;19920;-70
2020/12/29 11:29:55;;;;;;;;;;;5.90;98.10;;;;;;10486478;28;19934;-70
2020/12/29 11:34:57;;;;;;;;;;;5.90;98.50;;;;;;10462609;28;20003;-70
2020/12/29 11:40:00;;;;;;;;;;;5.80;98.80;;;;;;10468172;28;19982;-70
2020/12/29 11:45:03;;;;;;;;;;;6.00;99.40;;;;;;10484841;28;20285;-70
2020/12/29 11:50:04;;;;;;;;;;;6.10;99.60;;;;;;10484780;28;19924;-71
2020/12/29 11:55:06;;;;;;;;;;;6.30;99.40;;;;;;10483747;28;20352;-71
2020/12/29 12:00:07;;;;;;;;;;;6.40;98.90;;;;;;10465541;28;19962;-70
2020/12/29 12:05:09;;;;;;;;;;;6.30;98.40;;;;;;10474794;28;20222;-71
2020/12/29 12:10:12;;;;;;;;;;;6.30;98.40;;;;;;10484727;28;20409;-71
2020/12/29 12:15:13;;;;;;;;;;;6.30;98.00;;;;;;10485086;28;20146;-70
2020/12/29 12:20:15;;;;;;;;;;;6.30;98.50;;;;;;10485406;28;20004;-71
2020/12/29 12:25:16;;;;;;;;;;;6.30;98.00;;;;;;10486114;28;20007;-70
2020/12/29 12:30:17;;;;;;;;;;;6.30;97.70;;;;;;10493081;28;20023;-70
2020/12/29 12:35:19;;;;;;;;;;;6.10;97.60;;;;;;10476721;28;20003;-70
2020/12/29 12:40:20;;;;;;;;;;;6.20;97.70;;;;;;10475865;28;20003;-70
2020/12/29 12:45:21;;;;;;;;;;;6.20;97.00;;;;;;10492100;28;19978;-71
2020/12/29 12:50:22;;;;;;;;;;;6.40;97.40;;;;;;10492357;28;20384;-70
2020/12/29 12:55:24;;;;;;;;;;;6.40;97.30;;;;;;10473908;28;20369;-70
2020/12/29 13:00:25;;;;;;;;;;;6.50;97.10;;;;;;10491324;28;20392;-70
2020/12/29 13:05:26;;;;;;;;;;;6.60;96.30;;;;;;10490549;28;20363;-70
2020/12/29 13:10:28;;;;;;;;;;;6.60;96.00;;;;;;10491921;28;20354;-70
2020/12/29 13:15:30;;;;;;;;;;;6.60;95.70;;;;;;10490455;28;19999;-70
2020/12/29 13:20:31;;;;;;;;;;;6.60;95.90;;;;;;10490898;28;20367;-70
2020/12/29 13:25:33;;;;;;;;;;;6.60;96.00;;;;;;10490543;28;20004;-70
2020/12/29 13:30:34;;;;;;;;;;;6.80;95.60;;;;;;10474875;28;20456;-70
2020/12/29 13:35:38;;;;;;;;;;;6.60;95.20;;;;;;10461485;28;20342;-70
2020/12/29 13:40:39;;;;;;;;;;;6.70;95.70;;;;;;10469696;28;20517;-70
2020/12/29 13:45:41;;;;;;;;;;;6.50;95.10;;;;;;10489559;28;19924;-71
2020/12/29 13:50:42;;;;;;;;;;;6.50;95.00;;;;;;10489437;28;19955;-70
2020/12/29 13:55:48;;;;;;;;;;;6.50;95.40;;;;;;10462014;28;20027;-70
2020/12/29 14:00:49;;;;;;;;;;;6.40;95.20;;;;;;10481831;28;19972;-70
2020/12/29 14:05:50;;;;;;;;;;;6.30;95.10;;;;;;10476480;28;19971;-70
2020/12/29 14:10:52;;;;;;;;;;;6.50;95.40;;;;;;10486272;28;19921;-71
2020/12/29 14:15:53;;;;;;;;;;;6.60;95.40;;;;;;10488624;28;20446;-70
2020/12/29 14:20:55;;;;;;;;;;;6.50;95.20;;;;;;10489252;28;19920;-70
2020/12/29 14:25:56;;;;;;;;;;;6.40;95.20;;;;;;10488634;28;19974;-70
2020/12/29 14:31:15;;;;;;;;;;;6.40;95.70;;;;;;10472242;28;20032;-70
2020/12/29 14:36:17;;;;;;;;;;;6.30;96.80;;;;;;10478765;28;19920;-70
2020/12/29 14:41:18;;;;;;;;;;;6.20;97.70;;;;;;10466202;28;19966;-71
2020/12/29 14:46:23;;;;;;;;;;;6.30;98.30;;;;;;10486340;28;20014;-70
2020/12/29 14:51:25;;;;;;;;;;;6.20;98.70;;;;;;10485942;28;19932;-70
2020/12/29 14:56:33;;;;;;;;;;;6.30;98.80;;;;;;10485955;28;20038;-71
2020/12/29 15:01:35;;;;;;;;;;;6.30;99.20;;;;;;10486633;28;20384;-70
2020/12/29 15:06:40;;;;;;;;;;;6.30;99.80;;;;;;10486130;28;20356;-70
2020/12/29 15:11:42;;;;;;;;;;;6.20;99.90;;;;;;10486173;28;20319;-70
2020/12/29 15:16:43;;;;;;;;;;;6.20;99.90;;;;;;10481519;28;20031;-70
2020/12/29 15:21:44;;;;;;;;;;;6.20;99.90;;;;;;10479805;28;20415;-69
2020/12/29 15:26:46;;;;;;;;;;;6.20;99.90;;;;;;10486117;28;20355;-69
2020/12/29 15:31:47;;;;;;;;;;;6.30;99.90;;;;;;10486161;28;19966;-69
2020/12/29 15:36:55;;;;;;;;;;;6.20;99.90;;;;;;10486325;28;19928;-69
2020/12/29 15:41:57;;;;;;;;;;;6.20;99.90;;;;;;10450072;28;19920;-69
2020/12/29 15:47:08;;;;;;;;;;;6.10;99.90;;;;;;10466336;28;19979;-69
2020/12/29 15:52:09;;;;;;;;;;;6.10;99.90;;;;;;10460497;28;20381;-69
2020/12/29 15:57:10;;;;;;;;;;;6.10;99.90;;;;;;10490799;28;19920;-68
2020/12/29 16:02:12;;;;;;;;;;;6.10;99.90;;;;;;10464194;28;19978;-69
2020/12/29 16:07:13;;;;;;;;;;;6.10;99.90;;;;;;10482350;28;19950;-68
2020/12/29 16:12:14;;;;;;;;;;;6.20;99.90;;;;;;10491013;28;20380;-68
2020/12/29 16:17:15;;;;;;;;;;;6.10;99.90;;;;;;10492523;28;19920;-69
2020/12/29 16:22:17;;;;;;;;;;;6.10;99.90;;;;;;10493083;28;20018;-69
2020/12/29 16:27:18;;;;;;;;;;;6.00;99.90;;;;;;10486841;28;20022;-69
2020/12/29 16:32:20;;;;;;;;;;;6.00;99.90;;;;;;10490984;28;19970;-69
2020/12/29 16:37:28;;;;;;;;;;;5.90;99.90;;;;;;10492206;28;19954;-68
2020/12/29 16:42:30;;;;;;;;;;;5.90;99.90;;;;;;10465814;28;19960;-69
2020/12/29 16:47:31;;;;;;;;;;;5.70;99.90;;;;;;10485632;28;20022;-68
2020/12/29 16:52:32;;;;;;;;;;;5.60;99.90;;;;;;10491121;28;20019;-68
2020/12/29 16:57:35;;;;;;;;;;;5.60;99.90;;;;;;10477115;28;19920;-68
2020/12/29 17:02:36;;;;;;;;;;;5.70;99.90;;;;;;10492329;28;20007;-68
2020/12/29 17:07:38;;;;;;;;;;;5.60;99.90;;;;;;10473270;28;20357;-69
2020/12/29 17:12:39;;;;;;;;;;;5.50;99.90;;;;;;10484475;28;19994;-69
2020/12/29 17:17:40;;;;;;;;;;;5.50;99.90;;;;;;10488045;28;19925;-69
2020/12/29 17:22:42;;;;;;;;;;;5.50;99.90;;;;;;10482647;28;19933;-68
2020/12/29 17:27:43;;;;;;;;;;;5.60;99.90;;;;;;10487917;28;20023;-70
2020/12/29 17:32:44;;;;;;;;;;;5.70;99.90;;;;;;10488988;28;19962;-68
2020/12/29 17:37:45;;;;;;;;;;;5.80;99.90;;;;;;10490052;28;19962;-69
2020/12/29 17:42:47;;;;;;;;;;;5.80;99.90;;;;;;10467186;28;20011;-68
2020/12/29 17:47:48;;;;;;;;;;;5.90;99.90;;;;;;10486803;28;20057;-68
2020/12/29 17:52:49;;;;;;;;;;;5.90;99.90;;;;;;10488657;28;20039;-68
2020/12/29 17:57:56;;;;;;;;;;;5.90;99.90;;;;;;10490166;28;20027;-69
2020/12/29 18:02:57;;;;;;;;;;;5.90;99.90;;;;;;10490169;28;19974;-68
2020/12/29 18:08:00;;;;;;;;;;;5.90;99.90;;;;;;10488974;28;20407;-68
2020/12/29 18:13:01;;;;;;;;;;;5.80;99.90;;;;;;10489893;28;19970;-68
2020/12/29 18:18:03;;;;;;;;;;;5.70;99.90;;;;;;10488679;28;19924;-68
2020/12/29 18:23:06;;;;;;;;;;;5.70;99.90;;;;;;10488285;28;19920;-68
2020/12/29 18:28:10;;;;;;;;;;;5.60;99.80;;;;;;10478616;28;19966;-68
2020/12/29 18:33:13;;;;;;;;;;;5.20;99.90;;;;;;10477361;28;19924;-68
2020/12/29 18:38:27;;;;;;;;;;;5.10;99.90;;;;;;10467843;28;20300;-68
2020/12/29 18:43:28;;;;;;;;;;;4.90;99.90;;;;;;10446157;28;20444;-67
2020/12/29 18:48:29;;;;;;;;;;;4.70;99.90;;;;;;10481407;28;20484;-68
2020/12/29 18:53:31;;;;;;;;;;;4.60;99.90;;;;;;10481989;28;19921;-67
2020/12/29 18:58:32;;;;;;;;;;;4.60;99.90;;;;;;10487114;28;20010;-68
2020/12/29 19:03:33;;;;;;;;;;;4.60;99.90;;;;;;10486179;28;20023;-69
2020/12/29 19:08:35;;;;;;;;;;;4.60;99.90;;;;;;10470381;28;20199;-68
2020/12/29 19:13:36;;;;;;;;;;;4.60;99.90;;;;;;10465848;28;19924;-69
2020/12/29 19:18:38;;;;;;;;;;;4.60;99.90;;;;;;10486215;28;19997;-69
2020/12/29 19:23:47;;;;;;;;;;;4.50;99.90;;;;;;10488644;28;19936;-69
2020/12/29 19:28:49;;;;;;;;;;;4.50;99.90;;;;;;10488287;28;20014;-69
2020/12/29 19:33:51;;;;;;;;;;;4.50;99.90;;;;;;10488007;28;20376;-68
2020/12/29 19:38:53;;;;;;;;;;;4.40;99.90;;;;;;10486979;28;19927;-69
2020/12/29 19:43:57;;;;;;;;;;;4.20;99.90;;;;;;10460783;28;19964;-69
2020/12/29 19:48:59;;;;;;;;;;;4.10;99.90;;;;;;10465649;28;20333;-68
2020/12/29 19:54:00;;;;;;;;;;;3.80;99.90;;;;;;10465272;28;21030;-69
2020/12/29 19:59:01;;;;;;;;;;;3.80;99.90;;;;;;10468081;28;20003;-69
2020/12/29 20:04:03;;;;;;;;;;;3.90;99.90;;;;;;10464468;28;20484;-69
2020/12/29 20:09:07;;;;;;;;;;;3.90;99.90;;;;;;10468306;28;20500;-69
2020/12/29 20:14:09;;;;;;;;;;;4.00;99.90;;;;;;10466893;28;19963;-69
2020/12/29 20:19:10;;;;;;;;;;;4.10;99.90;;;;;;10464522;28;20307;-69
2020/12/29 20:24:11;;;;;;;;;;;4.10;99.90;;;;;;10465617;28;20410;-69
2020/12/29 20:29:13;;;;;;;;;;;4.20;99.90;;;;;;10474670;28;20443;-68
2020/12/29 20:34:14;;;;;;;;;;;4.30;99.90;;;;;;10486259;28;20007;-69
2020/12/29 20:39:15;;;;;;;;;;;4.30;99.90;;;;;;10486757;28;20002;-69
2020/12/29 20:44:16;;;;;;;;;;;4.30;99.90;;;;;;10486063;28;20328;-68
2020/12/29 20:49:18;;;;;;;;;;;4.20;99.70;;;;;;10491849;28;19920;-68
2020/12/29 20:54:20;;;;;;;;;;;4.20;99.90;;;;;;10492180;28;19921;-68
2020/12/29 20:59:22;;;;;;;;;;;4.10;99.70;;;;;;10492968;28;19925;-68
2020/12/29 21:04:23;;;;;;;;;;;3.70;99.90;;;;;;10469748;28;19921;-69
2020/12/29 21:09:24;;;;;;;;;;;3.60;99.90;;;;;;10489719;28;20071;-69
2020/12/29 21:14:28;;;;;;;;;;;3.50;99.90;;;;;;10491524;28;19928;-69
2020/12/29 21:19:29;;;;;;;;;;;3.60;99.90;;;;;;10465507;28;20027;-68
2020/12/29 21:24:30;;;;;;;;;;;3.60;99.90;;;;;;10490424;28;19964;-69
2020/12/29 21:29:31;;;;;;;;;;;3.50;99.90;;;;;;10491431;28;19936;-68
2020/12/29 21:34:33;;;;;;;;;;;3.60;99.90;;;;;;10491310;28;19942;-68
2020/12/29 21:39:34;;;;;;;;;;;3.60;99.90;;;;;;10491543;28;19924;-68
2020/12/29 21:44:36;;;;;;;;;;;3.60;99.90;;;;;;10491362;28;19927;-69
2020/12/29 21:49:37;;;;;;;;;;;3.70;99.90;;;;;;10490606;28;20074;-69
2020/12/29 21:54:38;;;;;;;;;;;3.80;99.90;;;;;;10489566;28;19928;-69
2020/12/29 21:59:40;;;;;;;;;;;3.90;99.90;;;;;;10488170;28;20412;-68
2020/12/29 22:04:42;;;;;;;;;;;3.80;99.90;;;;;;10489977;28;19939;-68
2020/12/29 22:09:43;;;;;;;;;;;3.80;99.90;;;;;;10486816;28;20007;-68
2020/12/29 22:14:47;;;;;;;;;;;3.90;99.90;;;;;;10490230;28;19974;-68
2020/12/29 22:19:48;;;;;;;;;;;3.80;99.90;;;;;;10489788;28;19920;-68
2020/12/29 22:24:49;;;;;;;;;;;3.90;99.90;;;;;;10489887;28;20015;-68
2020/12/29 22:29:51;;;;;;;;;;;3.90;99.90;;;;;;10489681;28;19944;-68
2020/12/29 22:34:52;;;;;;;;;;;4.00;99.90;;;;;;10489341;28;19927;-68
2020/12/29 22:39:54;;;;;;;;;;;4.10;99.90;;;;;;10488981;28;19971;-68
2020/12/29 22:44:55;;;;;;;;;;;4.10;99.90;;;;;;10488363;28;19924;-68
2020/12/29 22:49:57;;;;;;;;;;;4.10;99.90;;;;;;10489070;28;20007;-68
2020/12/29 22:54:58;;;;;;;;;;;4.20;99.90;;;;;;10471273;28;19925;-68
2020/12/29 23:00:00;;;;;;;;;;;4.00;99.90;;;;;;10458198;28;20011;-68
2020/12/29 23:05:01;;;;;;;;;;;4.00;99.90;;;;;;10451912;28;19985;-68
2020/12/29 23:10:03;;;;;;;;;;;3.90;99.90;;;;;;10471494;28;20061;-68
2020/12/29 23:15:06;;;;;;;;;;;4.00;99.90;;;;;;10485224;28;19925;-68
2020/12/29 23:20:07;;;;;;;;;;;4.10;99.90;;;;;;10486578;28;20038;-68
2020/12/29 23:25:08;;;;;;;;;;;4.20;99.90;;;;;;10485494;28;19920;-68
2020/12/29 23:30:10;;;;;;;;;;;4.10;99.90;;;;;;10485988;28;20015;-69
2020/12/29 23:35:11;;;;;;;;;;;4.00;99.90;;;;;;10472783;28;20114;-69
2020/12/29 23:40:12;;;;;;;;;;;3.90;99.90;;;;;;10470158;28;20006;-69
2020/12/29 23:45:14;;;;;;;;;;;3.80;99.90;;;;;;10474592;28;19924;-68
2020/12/29 23:50:16;;;;;;;;;;;3.70;99.90;;;;;;10468251;28;19943;-69
2020/12/29 23:55:17;;;;;;;;;;;3.80;99.90;;;;;;10484132;28;20525;-68
